Time;durP1;ratioP1;P1;durP2;ratioP2;P2;SDS_P1;SDS_P2;PMS_P1;PMS_P2;Temp;Humidity;BMP_temperature;BMP_pressure;BME280_temperature;BME280_humidity;BME280_pressure;Samples;Min_cycle;Max_cycle;Signal;HPM_P1;HPM_P2
2022/08/10 00:01:42;;;;;;;5.80;4.80;;;;;;;18.31;61.57;101428.98;106037;1277;26698;-72
2022/08/10 00:04:10;;;;;;;5.30;4.70;;;;;;;18.27;61.64;101427.12;105969;1276;24106;-73
2022/08/10 00:06:48;;;;;;;5.80;4.80;;;;;;;18.25;61.97;101428.59;106027;1271;23964;-70
2022/08/10 00:09:15;;;;;;;6.50;4.80;;;;;;;18.23;61.94;101427.59;106241;1272;24045;-74
2022/08/10 00:11:42;;;;;;;7.40;4.80;;;;;;;18.19;61.94;101428.04;105930;1276;23126;-73
2022/08/10 00:14:09;;;;;;;7.60;4.20;;;;;;;18.17;62.10;101427.90;105549;1277;22527;-72
2022/08/10 00:16:35;;;;;;;4.40;4.00;;;;;;;18.17;62.12;101430.77;105898;1276;22670;-73
2022/08/10 00:19:02;;;;;;;5.90;4.40;;;;;;;18.16;62.16;101428.45;105780;1277;22724;-75
2022/08/10 00:21:29;;;;;;;7.00;4.80;;;;;;;18.17;62.25;101432.91;105669;1276;22731;-73
2022/08/10 00:23:56;;;;;;;6.50;4.70;;;;;;;18.16;62.29;101429.19;105700;1277;22526;-83
2022/08/10 00:26:23;;;;;;;6.70;4.40;;;;;;;18.14;62.33;101431.00;105591;1276;24306;-74
2022/08/10 00:28:51;;;;;;;6.10;4.30;;;;;;;18.12;62.48;101429.09;105766;1279;25126;-73
2022/08/10 00:31:18;;;;;;;5.50;4.50;;;;;;;18.10;62.62;101429.30;106296;1271;24069;-72
2022/08/10 00:33:45;;;;;;;5.90;4.60;;;;;;;18.05;62.62;101427.27;106397;1271;24169;-74
2022/08/10 00:36:12;;;;;;;8.00;4.60;;;;;;;18.02;62.70;101432.69;106158;1273;22690;-74
2022/08/10 00:38:39;;;;;;;5.80;4.40;;;;;;;17.98;62.83;101431.17;106278;1271;24223;-73
2022/08/10 00:41:07;;;;;;;8.70;5.30;;;;;;;17.98;62.89;101426.90;106218;1271;22636;-73
2022/08/10 00:43:34;;;;;;;8.50;4.90;;;;;;;17.96;63.03;101426.23;106135;1271;22550;-75
2022/08/10 00:46:01;;;;;;;5.30;4.70;;;;;;;17.94;62.97;101422.73;106255;1271;26116;-75
2022/08/10 00:48:28;;;;;;;5.90;4.50;;;;;;;17.91;63.08;101426.53;106215;1271;25354;-78
2022/08/10 00:50:58;;;;;;;7.10;4.00;;;;;;;17.87;63.14;101425.17;106232;1270;22529;-74
2022/08/10 00:53:28;;;;;;;6.90;4.60;;;;;;;17.85;63.23;101428.62;106420;1271;22552;-77
2022/08/10 00:55:56;;;;;;;6.30;4.20;;;;;;;17.85;63.42;101430.59;105332;1271;1399849;-76
2022/08/10 00:58:43;;;;;;;8.80;4.30;;;;;;;17.84;63.35;101432.73;106248;1271;25501;-76
2022/08/10 01:01:11;;;;;;;5.90;4.00;;;;;;;17.81;63.51;101432.28;106196;1271;22611;-76
2022/08/10 01:04:01;;;;;;;8.70;4.30;;;;;;;17.78;63.63;101432.34;106381;1271;22528;-79
2022/08/10 01:07:13;;;;;;;4.70;4.30;;;;;;;17.76;63.59;101433.64;106278;1271;22806;-74
2022/08/10 01:10:09;;;;;;;7.30;4.60;;;;;;;17.75;63.74;101435.45;106266;1271;22623;-77
2022/08/10 01:13:01;;;;;;;4.70;4.20;;;;;;;17.73;63.81;101435.48;105915;1277;22682;-78
2022/08/10 01:16:00;;;;;;;5.60;4.50;;;;;;;17.71;64.09;101434.10;105756;1277;24160;-74
2022/08/10 01:18:37;;;;;;;6.80;4.40;;;;;;;17.67;64.16;101432.23;105953;1276;25309;-74
2022/08/10 01:21:41;;;;;;;6.00;4.40;;;;;;;17.62;64.14;101434.49;105529;1282;24883;-74
2022/08/10 01:24:57;;;;;;;4.70;4.00;;;;;;;17.58;64.28;101435.61;104811;1287;22700;-77
2022/08/10 01:27:47;;;;;;;6.40;4.50;;;;;;;17.56;64.40;101437.44;104824;1288;22617;-70
2022/08/10 01:30:17;;;;;;;7.60;4.10;;;;;;;17.55;64.33;101438.54;104198;1288;22729;-73
2022/08/10 01:33:07;;;;;;;8.10;4.10;;;;;;;17.56;64.42;101435.69;104582;1290;22640;-72
2022/08/10 01:35:34;;;;;;;4.70;4.20;;;;;;;17.55;64.53;101431.61;104560;1287;22572;-68
2022/08/10 01:42:06;;;;;;;9.10;4.30;;;;;;;17.50;64.80;101435.45;104992;1278;22996;-70
2022/08/10 01:44:38;;;;;;;6.20;4.10;;;;;;;17.48;64.71;101439.92;105442;1279;23350;-70
2022/08/10 01:50:10;;;;;;;8.50;4.50;;;;;;;17.40;64.62;101441.16;106314;1271;23959;-69
2022/08/10 01:52:41;;;;;;;4.80;4.10;;;;;;;17.37;64.84;101443.20;106166;1271;22763;-71
2022/08/10 01:55:10;;;;;;;4.90;3.70;;;;;;;17.32;64.95;101441.52;106132;1271;23922;-71
2022/08/10 01:57:40;;;;;;;6.40;4.00;;;;;;;17.30;65.02;101441.38;106215;1277;24165;-70
2022/08/10 02:00:11;;;;;;;4.40;4.00;;;;;;;17.29;64.97;101442.83;106862;1275;22559;-70
2022/08/10 02:02:42;;;;;;;5.70;3.80;;;;;;;17.28;65.06;101439.11;107971;1274;22838;-69
2022/08/10 02:05:10;;;;;;;5.10;3.70;;;;;;;17.27;64.94;101435.21;107297;1275;22575;-67
2022/08/10 02:07:40;;;;;;;5.30;4.30;;;;;;;17.28;65.17;101441.61;107513;1277;22629;-68
2022/08/10 02:10:12;;;;;;;5.10;4.40;;;;;;;17.29;65.14;101441.57;107748;1278;22526;-69
2022/08/10 02:12:42;;;;;;;4.90;4.50;;;;;;;17.30;65.22;101440.67;106146;1277;22968;-69
2022/08/10 02:15:15;;;;;;;6.40;4.50;;;;;;;17.27;65.30;101438.42;105643;1278;24270;-69
2022/08/10 02:17:48;;;;;;;6.90;4.70;;;;;;;17.29;65.40;101444.59;105990;1274;22737;-70
2022/08/10 02:20:32;;;;;;;6.90;5.10;;;;;;;17.28;65.17;101444.98;105398;1278;22546;-69
2022/08/10 02:23:04;;;;;;;5.90;5.10;;;;;;;17.24;65.21;101447.73;105435;1281;22621;-70
2022/08/10 02:25:32;;;;;;;6.70;4.80;;;;;;;17.19;65.52;101448.36;105595;1277;25267;-71
2022/08/10 02:28:12;;;;;;;8.40;4.70;;;;;;;17.17;65.48;101448.23;105542;1277;24164;-70
2022/08/10 02:31:01;;;;;;;6.00;4.70;;;;;;;17.13;65.69;101447.92;105898;1274;22677;-69
2022/08/10 02:33:29;;;;;;;7.30;5.00;;;;;;;17.14;65.64;101450.96;105806;1274;25205;-69
2022/08/10 02:36:00;;;;;;;6.80;4.70;;;;;;;17.16;65.76;101447.89;105847;1274;22740;-70
2022/08/10 02:38:35;;;;;;;5.70;4.80;;;;;;;17.11;65.80;101451.54;105864;1272;22547;-69
2022/08/10 02:41:31;;;;;;;5.10;4.60;;;;;;;17.09;65.87;101451.58;106105;1271;22610;-69
2022/08/10 02:44:29;;;;;;;7.10;4.50;;;;;;;17.07;65.99;101454.08;106200;1271;22558;-70
2022/08/10 02:47:33;;;;;;;5.20;4.70;;;;;;;17.05;66.04;101456.05;105949;1274;22560;-67
2022/08/10 02:50:31;;;;;;;7.80;4.80;;;;;;;17.01;66.07;101454.55;105995;1271;25601;-71
2022/08/10 02:53:15;;;;;;;6.60;4.90;;;;;;;16.97;66.20;101456.03;106071;1271;24305;-69
2022/08/10 02:56:08;;;;;;;4.20;3.80;;;;;;;16.93;66.29;101456.30;106138;1271;22849;-69
2022/08/10 02:59:07;;;;;;;5.40;4.50;;;;;;;16.88;66.41;101453.54;106139;1271;24246;-69
2022/08/10 03:01:42;;;;;;;6.20;4.40;;;;;;;16.89;66.64;101456.37;105939;1271;23055;-68
2022/08/10 03:04:22;;;;;;;6.00;4.10;;;;;;;16.91;66.56;101452.96;106209;1271;22610;-85
2022/08/10 03:07:12;;;;;;;6.00;4.40;;;;;;;16.90;66.63;101454.05;106161;1271;22549;-73
2022/08/10 03:09:40;;;;;;;7.20;4.40;;;;;;;16.89;66.57;101452.81;106189;1271;23059;-71
2022/08/10 03:12:11;;;;;;;5.60;4.60;;;;;;;16.89;66.57;101454.59;106302;1271;22553;-71
2022/08/10 03:14:59;;;;;;;5.00;4.20;;;;;;;16.87;66.73;101453.57;106278;1271;23210;-68
2022/08/10 03:17:28;;;;;;;6.50;4.10;;;;;;;16.85;66.73;101459.11;106581;1271;22872;-71
2022/08/10 03:19:58;;;;;;;4.50;4.00;;;;;;;16.79;66.60;101458.48;106263;1271;25152;-72
2022/08/10 03:22:49;;;;;;;4.10;3.70;;;;;;;16.74;66.83;101459.48;106075;1271;23939;-66
2022/08/10 03:25:21;;;;;;;4.10;3.80;;;;;;;16.74;66.86;101464.65;106138;1271;24275;-69
2022/08/10 03:27:48;;;;;;;5.10;4.00;;;;;;;16.72;66.96;101462.89;106162;1271;22586;-71
2022/08/10 03:30:15;;;;;;;4.80;4.30;;;;;;;16.72;66.81;101461.48;106219;1271;22555;-72
2022/08/10 03:33:03;;;;;;;4.90;4.20;;;;;;;16.71;67.19;101464.86;106120;1271;22543;-72
2022/08/10 03:35:30;;;;;;;4.90;4.20;;;;;;;16.68;67.11;101465.98;106052;1271;22586;-72
2022/08/10 03:37:59;;;;;;;5.50;4.80;;;;;;;16.66;67.12;101466.20;106120;1274;25236;-70
2022/08/10 03:40:33;;;;;;;6.80;4.50;;;;;;;16.60;67.13;101459.90;106261;1271;23089;-68
2022/08/10 03:43:18;;;;;;;5.60;4.50;;;;;;;16.58;67.25;101461.54;106290;1271;25233;-79
2022/08/10 03:45:52;;;;;;;4.40;4.00;;;;;;;16.55;67.42;101465.69;106201;1271;22492;-72
2022/08/10 03:48:28;;;;;;;9.10;3.90;;;;;;;16.54;67.49;101464.46;106047;1274;25192;-71
2022/08/10 03:51:16;;;;;;;6.50;4.40;;;;;;;16.54;67.53;101465.52;106036;1271;22691;-68
2022/08/10 03:53:43;;;;;;;6.80;4.10;;;;;;;16.53;67.70;101470.68;106181;1271;22562;-70
2022/08/10 03:56:31;;;;;;;6.20;3.90;;;;;;;16.56;67.72;101473.13;106212;1272;24262;-69
2022/08/10 03:59:00;;;;;;;4.80;4.10;;;;;;;16.56;67.76;101473.48;106236;1271;22547;-70
2022/08/10 04:01:29;;;;;;;6.80;4.60;;;;;;;16.55;67.67;101478.11;106170;1271;25306;-69
2022/08/10 04:04:17;;;;;;;7.60;4.40;;;;;;;16.55;67.78;101477.40;106233;1271;22555;-69
2022/08/10 04:06:52;;;;;;;8.30;4.50;;;;;;;16.54;67.95;101487.20;106277;1271;25411;-70
2022/08/10 04:09:29;;;;;;;6.50;5.50;;;;;;;16.53;67.83;101481.54;106275;1271;24087;-69
2022/08/10 04:12:16;;;;;;;7.40;4.30;;;;;;;16.54;67.91;101485.08;106128;1271;25298;-71
2022/08/10 04:14:43;;;;;;;5.00;4.20;;;;;;;16.56;68.05;101485.39;106247;1271;22739;-69
2022/08/10 04:17:21;;;;;;;5.30;4.00;;;;;;;16.57;67.92;101487.33;106229;1271;22836;-69
2022/08/10 04:20:34;;;;;;;7.60;4.20;;;;;;;16.58;68.12;101485.90;106154;1271;22525;-67
2022/08/10 04:23:06;;;;;;;4.30;3.90;;;;;;;16.62;68.17;101491.34;106217;1271;22575;-75
2022/08/10 04:25:34;;;;;;;5.20;4.10;;;;;;;16.62;67.96;101491.53;106279;1271;22557;-72
2022/08/10 04:28:02;;;;;;;5.60;4.20;;;;;;;16.60;68.23;101490.65;106353;1271;22541;-74
2022/08/10 04:30:31;;;;;;;6.50;4.90;;;;;;;16.60;68.16;101489.23;106173;1271;24279;-68
2022/08/10 04:33:01;;;;;;;7.20;4.40;;;;;;;16.58;68.31;101491.23;106225;1271;22685;-71
2022/08/10 04:35:29;;;;;;;8.50;4.40;;;;;;;16.59;68.36;101493.52;106199;1272;27448;-71
2022/08/10 04:37:58;;;;;;;6.90;4.10;;;;;;;16.62;68.37;101493.29;106470;1271;22991;-66
2022/08/10 04:40:26;;;;;;;6.60;4.40;;;;;;;16.64;68.36;101495.40;106308;1271;23053;-71
2022/08/10 04:43:06;;;;;;;6.70;4.50;;;;;;;16.68;68.39;101491.61;106321;1271;22619;-69
2022/08/10 04:45:42;;;;;;;7.20;4.00;;;;;;;16.68;68.41;101491.06;106264;1271;25662;-70
2022/08/10 04:48:19;;;;;;;7.80;4.40;;;;;;;16.74;68.40;101496.84;106119;1271;22790;-74
2022/08/10 04:51:07;;;;;;;8.50;4.40;;;;;;;16.74;68.31;101500.57;106405;1271;26022;-75
2022/08/10 04:53:41;;;;;;;7.40;4.50;;;;;;;16.75;68.43;101499.31;106559;1271;23598;-77
2022/08/10 04:56:29;;;;;;;6.50;4.90;;;;;;;16.80;68.49;101501.89;106411;1271;22861;-76
2022/08/10 04:58:59;;;;;;;12.50;5.70;;;;;;;16.84;68.59;101503.25;106447;1271;25274;-82
2022/08/10 05:01:28;;;;;;;10.70;6.40;;;;;;;16.88;68.54;101509.75;106449;1271;25238;-71
2022/08/10 05:04:15;;;;;;;13.20;6.80;;;;;;;16.92;68.56;101510.40;106356;1271;22886;-72
2022/08/10 05:07:02;;;;;;;10.00;7.90;;;;;;;16.97;68.46;101508.89;106473;1271;22608;-71
2022/08/10 05:09:29;;;;;;;10.20;8.40;;;;;;;16.95;68.48;101503.24;107182;1271;22909;-71
2022/08/10 05:11:55;;;;;;;10.50;8.40;;;;;;;17.01;68.47;101509.17;107626;1271;23154;-69
2022/08/10 05:14:24;;;;;;;16.00;8.20;;;;;;;17.05;68.33;101510.16;108576;1271;22881;-72
2022/08/10 05:16:51;;;;;;;13.50;9.20;;;;;;;17.10;68.62;101510.45;106975;1271;22625;-72
2022/08/10 05:19:18;;;;;;;13.00;10.10;;;;;;;17.17;68.26;101509.44;107117;1271;22621;-72
2022/08/10 05:22:06;;;;;;;18.40;10.60;;;;;;;17.24;68.46;101508.59;106734;1271;22734;-73
2022/08/10 05:24:32;;;;;;;16.90;11.90;;;;;;;17.31;68.38;101512.75;106486;1271;23085;-74
2022/08/10 05:26:59;;;;;;;17.60;12.60;;;;;;;17.35;68.39;101511.95;106290;1271;22542;-71
2022/08/10 05:29:36;;;;;;;17.70;12.70;;;;;;;17.38;68.12;101507.63;106385;1271;22768;-69
2022/08/10 05:32:03;;;;;;;15.20;12.70;;;;;;;17.39;68.23;101506.34;106210;1271;22579;-68
2022/08/10 05:34:30;;;;;;;19.20;12.50;;;;;;;17.43;68.10;101511.09;106510;1271;24762;-70
2022/08/10 05:36:57;;;;;;;15.00;10.60;;;;;;;17.43;68.02;101510.20;106324;1271;25248;-72
2022/08/10 05:39:25;;;;;;;14.80;10.50;;;;;;;17.52;68.03;101518.04;106420;1271;22865;-77
2022/08/10 05:41:58;;;;;;;15.60;9.80;;;;;;;17.51;67.98;101516.63;105871;1274;22710;-70
2022/08/10 05:44:28;;;;;;;15.60;9.70;;;;;;;17.55;68.07;101516.90;106058;1274;22737;-69
2022/08/10 05:46:55;;;;;;;12.40;9.50;;;;;;;17.60;68.07;101515.73;106121;1274;25435;-71
2022/08/10 05:49:24;;;;;;;24.00;9.60;;;;;;;17.64;68.00;101516.54;106045;1274;24318;-73
2022/08/10 05:51:51;;;;;;;14.10;10.00;;;;;;;17.68;67.86;101513.80;105980;1274;22730;-73
2022/08/10 05:54:18;;;;;;;13.20;9.00;;;;;;;17.71;67.82;101513.38;105847;1274;22522;-70
2022/08/10 05:56:47;;;;;;;14.30;9.40;;;;;;;17.75;67.87;101515.95;105789;1275;22588;-71
2022/08/10 05:59:30;;;;;;;14.30;8.40;;;;;;;17.78;67.72;101518.02;105842;1271;25313;-72
2022/08/10 06:02:29;;;;;;;10.80;6.70;;;;;;;17.80;67.69;101513.70;106003;1274;22746;-72
2022/08/10 06:05:12;;;;;;;9.30;7.10;;;;;;;17.88;67.70;101511.77;106159;1271;25511;-70
2022/08/10 06:07:45;;;;;;;14.80;7.50;;;;;;;17.93;67.58;101511.46;106165;1271;22829;-71
2022/08/10 06:10:14;;;;;;;9.80;7.30;;;;;;;18.00;67.49;101513.81;106084;1271;22529;-73
2022/08/10 06:16:04;;;;;;;17.00;7.70;;;;;;;18.10;67.24;101518.95;106368;1271;22531;-71
2022/08/10 06:18:31;;;;;;;10.10;7.30;;;;;;;18.10;67.21;101517.89;106215;1271;26724;-72
2022/08/10 06:21:02;;;;;;;13.50;8.50;;;;;;;18.13;67.28;101519.98;106178;1271;25532;-72
2022/08/10 06:23:30;;;;;;;11.10;9.20;;;;;;;18.17;67.21;101522.57;106332;1271;23311;-71
2022/08/10 06:25:58;;;;;;;17.00;8.10;;;;;;;18.22;67.03;101520.50;106209;1271;25475;-73
2022/08/10 06:28:42;;;;;;;13.70;8.10;;;;;;;18.25;67.14;101523.98;106330;1271;25409;-74
2022/08/10 06:31:34;;;;;;;14.50;9.40;;;;;;;18.29;66.91;101524.05;106156;1271;23278;-71
2022/08/10 06:34:26;;;;;;;14.30;8.90;;;;;;;18.35;67.09;101522.16;106283;1271;25239;-67
2022/08/10 06:36:56;;;;;;;18.80;9.20;;;;;;;18.40;66.90;101524.73;106426;1271;25501;-69
2022/08/10 06:39:23;;;;;;;16.60;9.90;;;;;;;18.47;66.81;101525.27;106309;1271;22525;-71
2022/08/10 06:42:14;;;;;;;18.70;9.20;;;;;;;18.54;66.63;101519.02;106206;1271;22483;-73
2022/08/10 06:44:54;;;;;;;16.10;5.60;;;;;;;18.57;66.56;101519.84;106186;1271;22613;-77
2022/08/10 06:47:27;;;;;;;13.40;5.90;;;;;;;18.56;66.53;101518.08;106117;1271;24427;-73
2022/08/10 06:50:01;;;;;;;9.70;4.70;;;;;;;18.58;66.44;101512.32;106320;1271;25332;-72
2022/08/10 06:52:31;;;;;;;;;;;;;;;18.64;66.40;101512.37;106200;1271;25232;-72
2022/08/10 06:55:00;;;;;;;8.10;3.10;;;;;;;18.68;66.16;101511.55;106304;1271;22528;-72
2022/08/10 06:57:36;;;;;;;5.60;2.90;;;;;;;18.71;65.97;101512.89;106156;1271;24278;-73
2022/08/10 07:00:05;;;;;;;5.80;3.10;;;;;;;18.76;65.91;101509.37;106116;1271;22542;-71
2022/08/10 07:03:02;;;;;;;7.50;2.60;;;;;;;18.82;65.83;101505.83;106187;1271;25404;-71
2022/08/10 07:05:38;;;;;;;3.90;2.60;;;;;;;18.84;65.70;101500.08;106101;1271;24844;-71
2022/08/10 07:08:07;;;;;;;6.40;2.80;;;;;;;18.94;65.91;101506.60;106098;1271;22521;-75
2022/08/10 07:10:37;;;;;;;7.10;2.70;;;;;;;19.01;65.60;101504.61;106369;1271;24375;-70
2022/08/10 07:13:15;;;;;;;6.30;3.00;;;;;;;19.09;65.29;101507.83;106435;1271;25248;-73
2022/08/10 07:16:04;;;;;;;6.80;2.80;;;;;;;19.13;65.31;101504.16;106339;1271;25411;-75
2022/08/10 07:18:32;;;;;;;3.50;2.70;;;;;;;19.20;65.10;101506.13;106449;1271;22607;-87
2022/08/10 07:21:00;;;;;;;8.40;3.10;;;;;;;19.27;65.14;101506.46;106330;1271;25495;-72
2022/08/10 07:23:29;;;;;;;4.20;2.50;;;;;;;19.35;65.07;101506.06;106110;1271;22564;-73
2022/08/10 07:26:18;;;;;;;4.20;2.30;;;;;;;19.45;64.96;101502.95;106072;1271;22525;-73
2022/08/10 07:28:47;;;;;;;3.30;2.40;;;;;;;19.48;64.48;101506.59;106447;1271;25406;-72
2022/08/10 07:31:17;;;;;;;5.70;2.40;;;;;;;19.52;64.24;101503.98;106167;1271;25323;-72
2022/08/10 07:34:06;;;;;;;6.10;2.20;;;;;;;19.59;63.80;101504.14;106237;1271;22552;-77
2022/08/10 07:36:35;;;;;;;4.10;2.40;;;;;;;19.63;63.60;101506.14;106286;1271;22553;-82
2022/08/10 07:39:04;;;;;;;5.80;2.30;;;;;;;19.70;63.46;101506.48;106379;1271;24282;-71
2022/08/10 07:41:33;;;;;;;3.60;2.60;;;;;;;19.78;63.06;101505.18;106252;1271;25373;-72
2022/08/10 07:44:04;;;;;;;2.80;2.20;;;;;;;19.87;62.66;101505.64;106163;1271;22530;-73
2022/08/10 07:46:34;;;;;;;4.10;1.60;;;;;;;19.98;62.57;101507.80;106263;1271;22533;-73
2022/08/10 07:49:09;;;;;;;1.80;1.50;;;;;;;20.11;62.07;101503.88;106214;1271;24250;-72
2022/08/10 07:51:49;;;;;;;5.00;2.40;;;;;;;20.22;61.43;101502.99;106076;1271;25327;-72
2022/08/10 07:54:24;;;;;;;3.80;1.90;;;;;;;20.33;61.40;101504.61;106288;1271;25358;-73
2022/08/10 07:56:54;;;;;;;2.80;1.90;;;;;;;20.43;61.05;101507.33;106285;1271;24316;-72
2022/08/10 07:59:35;;;;;;;2.00;1.70;;;;;;;20.51;60.86;101505.25;106326;1268;25359;-71
2022/08/10 08:02:05;;;;;;;3.10;1.80;;;;;;;20.66;60.83;101499.05;106287;1271;24276;-70
2022/08/10 08:04:32;;;;;;;3.60;1.60;;;;;;;20.77;60.51;101504.05;106055;1271;24228;-72
2022/08/10 08:07:03;;;;;;;2.10;1.90;;;;;;;20.87;60.34;101509.98;105915;1271;24451;-73
2022/08/10 08:09:32;;;;;;;3.20;2.00;;;;;;;20.95;59.91;101510.63;106085;1270;22534;-72
2022/08/10 08:12:00;;;;;;;5.50;1.70;;;;;;;21.04;59.83;101511.02;106087;1271;22529;-72
2022/08/10 08:14:29;;;;;;;2.10;2.00;;;;;;;21.09;59.36;101504.58;106385;1271;22754;-75
2022/08/10 08:16:57;;;;;;;2.70;1.80;;;;;;;21.22;58.80;101509.86;106540;1271;22688;-72
2022/08/10 08:19:25;;;;;;;2.50;1.90;;;;;;;21.37;58.32;101506.65;107947;1271;25869;-72
2022/08/10 08:22:05;;;;;;;2.30;1.80;;;;;;;21.49;58.23;101502.61;107446;1271;25384;-72
2022/08/10 08:24:55;;;;;;;2.50;2.00;;;;;;;21.59;57.91;101501.52;106989;1271;22485;-72
2022/08/10 08:27:23;;;;;;;6.10;3.00;;;;;;;21.68;57.66;101501.70;108713;1271;22610;-73
2022/08/10 08:29:51;;;;;;;5.20;2.20;;;;;;;21.86;57.61;101496.58;107449;1271;25299;-70
2022/08/10 08:32:25;;;;;;;4.10;2.40;;;;;;;22.08;57.04;101492.33;106726;1271;22611;-72
2022/08/10 08:35:05;;;;;;;4.30;2.00;;;;;;;22.31;57.13;101490.67;106370;1271;22552;-73
2022/08/10 08:37:34;;;;;;;9.30;2.60;;;;;;;22.51;56.18;101486.27;106435;1271;25245;-71
2022/08/10 08:40:32;;;;;;;3.30;2.10;;;;;;;22.70;55.75;101486.57;106388;1271;22542;-71
2022/08/10 08:43:22;;;;;;;5.10;1.90;;;;;;;22.88;55.41;101487.09;106390;1271;25432;-73
2022/08/10 08:46:33;;;;;;;2.20;1.70;;;;;;;23.02;54.21;101483.40;106331;1271;22544;-74
2022/08/10 08:49:19;;;;;;;3.10;1.90;;;;;;;23.16;54.05;101481.89;106421;1271;22531;-70
2022/08/10 08:52:18;;;;;;;2.10;1.40;;;;;;;23.33;53.54;101482.76;106391;1271;22702;-72
2022/08/10 08:55:23;;;;;;;3.70;1.60;;;;;;;23.42;52.85;101482.73;106219;1271;22854;-71
2022/08/10 08:58:28;;;;;;;1.60;1.50;;;;;;;23.47;51.59;101481.07;106315;1271;25468;-71
2022/08/10 09:01:12;;;;;;;2.70;1.80;;;;;;;23.58;51.76;101482.89;106405;1271;24233;-69
2022/08/10 09:04:20;;;;;;;1.90;1.20;;;;;;;23.73;51.38;101484.54;106540;1271;23046;-78
2022/08/10 09:07:34;;;;;;;1.70;1.60;;;;;;;23.90;50.76;101476.96;105801;1277;22614;-71
2022/08/10 09:10:36;;;;;;;1.80;1.50;;;;;;;24.02;49.90;101471.84;105819;1277;22615;-71
2022/08/10 09:13:32;;;;;;;2.30;1.40;;;;;;;24.17;49.70;101474.20;106261;1271;24517;-73
2022/08/10 09:16:24;;;;;;;2.20;1.70;;;;;;;24.28;49.58;101472.58;106358;1271;24020;-71
2022/08/10 09:18:58;;;;;;;3.10;1.60;;;;;;;24.50;49.66;101464.30;106411;1271;22551;-74
2022/08/10 09:21:25;;;;;;;2.00;1.40;;;;;;;24.48;48.68;101458.45;106430;1271;22870;-73
2022/08/10 09:24:39;;;;;;;3.10;1.30;;;;;;;24.49;48.48;101460.38;106466;1271;24073;-73
2022/08/10 09:27:18;;;;;;;1.60;1.40;;;;;;;24.73;48.02;101464.74;106353;1271;24067;-70
2022/08/10 09:30:15;;;;;;;1.60;1.50;;;;;;;24.93;47.53;101463.37;106348;1271;22684;-70
2022/08/10 09:32:53;;;;;;;1.50;1.40;;;;;;;25.02;46.81;101461.48;106495;1271;22553;-84
2022/08/10 09:35:52;;;;;;;2.20;1.30;;;;;;;24.85;46.91;101463.26;106333;1271;22560;-71
2022/08/10 09:39:11;;;;;;;1.50;1.40;;;;;;;24.86;46.34;101463.71;106217;1271;22545;-72
2022/08/10 09:42:13;;;;;;;1.80;1.70;;;;;;;25.07;46.29;101461.23;106439;1270;22703;-73
2022/08/10 09:44:58;;;;;;;1.40;1.30;;;;;;;25.28;45.98;101459.36;106404;1271;23616;-71
2022/08/10 09:47:52;;;;;;;2.60;1.50;;;;;;;25.47;45.79;101454.54;106427;1271;22544;-70
2022/08/10 09:50:53;;;;;;;1.90;1.30;;;;;;;25.63;45.22;101447.40;106641;1271;22551;-71
2022/08/10 09:53:43;;;;;;;1.80;1.50;;;;;;;25.68;45.31;101450.72;106607;1271;22693;-71
2022/08/10 09:56:16;;;;;;;1.50;1.40;;;;;;;25.82;44.64;101444.55;106484;1271;22526;-72
2022/08/10 09:59:13;;;;;;;3.00;1.40;;;;;;;26.04;44.46;101437.50;106491;1271;22987;-72
2022/08/10 10:02:13;;;;;;;2.20;1.30;;;;;;;26.33;44.03;101436.22;106477;1271;22661;-72
2022/08/10 10:05:19;;;;;;;1.70;1.40;;;;;;;26.50;43.43;101434.15;106429;1271;26501;-72
2022/08/10 10:08:09;;;;;;;1.60;1.50;;;;;;;26.68;43.01;101429.46;106220;1271;22521;-71
2022/08/10 10:10:50;;;;;;;2.70;1.40;;;;;;;26.92;42.77;101426.34;105864;1275;25312;-72
2022/08/10 10:13:26;;;;;;;1.60;1.50;;;;;;;27.12;42.42;101429.86;105966;1275;22949;-72
2022/08/10 10:16:44;;;;;;;1.80;1.20;;;;;;;27.18;41.63;101428.92;105993;1274;22650;-70
2022/08/10 10:19:43;;;;;;;2.20;1.40;;;;;;;27.49;41.36;101434.24;106089;1275;22556;-72
2022/08/10 10:22:37;;;;;;;1.60;1.30;;;;;;;27.85;40.98;101425.98;105146;1277;24380;-71
2022/08/10 10:25:32;;;;;;;2.30;1.10;;;;;;;28.20;40.35;101429.06;105980;1274;22547;-70
2022/08/10 10:28:31;;;;;;;2.00;1.50;;;;;;;28.24;39.36;101426.11;106067;1271;25305;-71
2022/08/10 10:31:21;;;;;;;2.70;1.40;;;;;;;27.95;39.68;101423.90;106167;1271;22550;-72
2022/08/10 10:33:48;;;;;;;3.00;1.60;;;;;;;27.57;39.93;101432.08;106329;1271;22869;-71
2022/08/10 10:36:19;;;;;;;3.00;2.00;;;;;;;27.03;39.97;101427.67;106407;1271;26510;-71
2022/08/10 10:38:48;;;;;;;2.10;1.50;;;;;;;26.50;40.85;101431.78;106270;1271;25369;-72
2022/08/10 10:41:39;;;;;;;2.10;1.60;;;;;;;26.25;41.84;101427.97;106318;1271;22856;-71
2022/08/10 10:44:58;;;;;;;3.10;1.80;;;;;;;26.03;42.19;101432.13;106471;1271;22612;-72
2022/08/10 10:47:34;;;;;;;4.30;1.30;;;;;;;25.86;42.40;101423.53;106286;1271;24371;-71
2022/08/10 10:50:14;;;;;;;3.30;1.40;;;;;;;25.82;42.36;101425.59;106351;1271;25515;-73
2022/08/10 10:52:55;;;;;;;2.20;1.40;;;;;;;25.69;42.30;101426.52;106354;1271;22528;-71
2022/08/10 10:55:49;;;;;;;1.80;1.50;;;;;;;25.57;42.68;101428.05;106038;1271;22603;-72
2022/08/10 10:59:10;;;;;;;4.30;1.30;;;;;;;25.39;42.51;101418.77;106301;1271;22551;-71
2022/08/10 11:02:17;;;;;;;1.90;0.90;;;;;;;25.06;41.87;101412.97;106352;1271;22735;-71
2022/08/10 11:04:55;;;;;;;1.90;1.10;;;;;;;24.88;41.64;101409.02;106359;1271;22545;-71
2022/08/10 11:07:51;;;;;;;1.80;1.10;;;;;;;24.91;41.66;101408.35;106320;1271;25525;-70
2022/08/10 11:10:37;;;;;;;1.50;1.30;;;;;;;25.32;41.37;101401.47;106395;1271;25414;-71
2022/08/10 11:14:10;;;;;;;1.30;1.00;;;;;;;25.79;41.28;101393.83;106566;1271;25545;-72
2022/08/10 11:17:01;;;;;;;1.60;1.30;;;;;;;26.41;40.69;101387.37;105882;1271;25434;-71
2022/08/10 11:20:07;;;;;;;1.50;1.00;;;;;;;26.78;39.39;101386.92;106155;1271;25362;-71
2022/08/10 11:22:50;;;;;;;2.50;1.10;;;;;;;27.24;38.74;101384.48;105909;1277;22541;-75
2022/08/10 11:25:23;;;;;;;1.20;1.00;;;;;;;27.63;38.55;101381.99;105929;1277;23010;-74
2022/08/10 11:28:21;;;;;;;1.00;1.00;;;;;;;27.98;38.03;101380.05;105700;1281;22579;-71
2022/08/10 11:31:04;;;;;;;1.20;1.00;;;;;;;28.11;37.74;101379.00;107138;1281;24217;-71
2022/08/10 11:33:49;;;;;;;3.50;1.40;;;;;;;28.03;37.42;101376.59;106300;1281;25329;-71
2022/08/10 11:36:48;;;;;;;0.90;0.90;;;;;;;27.82;37.37;101381.43;106408;1281;22974;-70
2022/08/10 11:39:35;;;;;;;2.70;1.30;;;;;;;27.56;37.70;101384.05;107687;1281;22542;-72
2022/08/10 11:42:29;;;;;;;2.70;1.80;;;;;;;27.22;37.95;101387.48;105887;1281;25250;-71
2022/08/10 11:45:10;;;;;;;1.70;1.30;;;;;;;27.09;38.38;101386.52;105381;1282;25364;-72
2022/08/10 11:47:45;;;;;;;2.00;1.60;;;;;;;27.10;38.31;101390.04;105476;1281;25417;-71
2022/08/10 11:50:11;;;;;;;;;;;;;;;27.38;38.26;101389.36;105352;1282;22524;-70
2022/08/10 11:53:14;;;;;;;2.70;1.00;;;;;;;27.64;37.76;101379.00;105495;1280;24313;-71
2022/08/10 11:55:48;;;;;;;1.20;1.00;;;;;;;27.99;37.17;101374.15;105958;1277;22564;-71
2022/08/10 12:01:09;;;;;;;1.10;1.00;;;;;;;28.59;35.78;101357.83;105913;1277;23045;-71
2022/08/10 12:03:38;;;;;;;1.40;1.00;;;;;;;28.75;35.41;101356.14;105806;1277;22531;-72
2022/08/10 12:06:12;;;;;;;1.70;1.20;;;;;;;28.93;35.20;101359.24;106155;1271;25414;-71
2022/08/10 12:08:45;;;;;;;1.00;0.90;;;;;;;29.02;34.55;101356.63;106329;1271;24258;-71
2022/08/10 12:11:33;;;;;;;1.60;0.90;;;;;;;29.00;34.55;101353.55;106191;1271;22613;-71
2022/08/10 12:14:18;;;;;;;1.10;1.10;;;;;;;28.85;34.77;101351.98;106221;1271;22722;-72
2022/08/10 12:16:58;;;;;;;1.40;1.20;;;;;;;28.82;34.99;101352.23;106234;1271;22553;-71
2022/08/10 12:19:36;;;;;;;2.60;1.20;;;;;;;29.07;33.89;101348.46;106210;1271;22733;-71
2022/08/10 12:22:47;;;;;;;1.00;0.90;;;;;;;29.46;33.63;101348.31;106366;1271;22575;-69
2022/08/10 12:25:20;;;;;;;1.70;1.10;;;;;;;29.70;33.06;101338.46;106243;1271;22528;-71
2022/08/10 12:28:16;;;;;;;2.50;1.20;;;;;;;29.76;33.49;101340.39;106259;1271;22541;-72